createdAt,value
2022-08-29T00:02:56.421Z,2.17
2022-08-29T00:05:58.539Z,3.00
2022-08-29T00:09:03.252Z,2.47
2022-08-29T00:12:05.781Z,2.15
2022-08-29T00:15:09.288Z,1.55
2022-08-29T00:18:11.581Z,1.70
2022-08-29T00:21:16.669Z,6.25
2022-08-29T00:24:18.580Z,3.15
2022-08-29T00:27:20.441Z,3.88
2022-08-29T00:30:23.638Z,1.23
2022-08-29T00:33:25.563Z,1.70
2022-08-29T00:36:30.455Z,0.90
2022-08-29T00:39:32.927Z,3.35
2022-08-29T00:42:35.922Z,1.25
2022-08-29T00:45:40.274Z,0.95
2022-08-29T00:48:42.592Z,1.83
2022-08-29T00:51:48.082Z,0.77
2022-08-29T00:54:52.431Z,1.10
2022-08-29T00:57:57.213Z,1.48
2022-08-29T01:00:59.598Z,1.00
2022-08-29T01:04:01.553Z,1.02
2022-08-29T01:07:04.034Z,1.02
2022-08-29T01:10:13.426Z,3.22
2022-08-29T01:13:16.175Z,1.15
2022-08-29T01:16:19.610Z,1.10
2022-08-29T01:19:41.632Z,0.73
2022-08-29T01:23:21.158Z,0.90
2022-08-29T01:26:23.461Z,1.17
2022-08-29T01:29:25.638Z,1.30
2022-08-29T01:32:27.777Z,3.17
2022-08-29T01:35:29.751Z,2.75
2022-08-29T01:38:34.288Z,0.60
2022-08-29T01:41:36.269Z,1.25
2022-08-29T01:44:38.711Z,1.00
2022-08-29T01:47:40.907Z,1.40
2022-08-29T01:50:42.834Z,2.60
2022-08-29T01:53:44.919Z,1.33
2022-08-29T01:56:49.134Z,2.10
2022-08-29T01:59:53.690Z,2.08
2022-08-29T02:02:56.851Z,1.73
2022-08-29T02:06:01.894Z,1.85
2022-08-29T02:09:05.361Z,2.03
2022-08-29T02:12:07.502Z,2.45
2022-08-29T02:15:10.704Z,4.43
2022-08-29T02:18:12.677Z,0.73
2022-08-29T02:21:16.474Z,3.17
2022-08-29T02:24:25.830Z,2.97
2022-08-29T02:27:28.823Z,1.42
2022-08-29T02:30:30.595Z,1.42
2022-08-29T02:33:32.875Z,1.45
2022-08-29T02:36:36.297Z,1.40
2022-08-29T02:39:41.834Z,2.47
2022-08-29T02:42:44.166Z,1.75
2022-08-29T02:45:47.787Z,1.88
2022-08-29T02:49:00.954Z,2.05
2022-08-29T02:52:07.184Z,3.75
2022-08-29T02:55:17.544Z,1.83
2022-08-29T02:58:22.266Z,6.20
2022-08-29T03:01:25.646Z,5.47
2022-08-29T03:04:31.244Z,5.50
2022-08-29T03:07:33.178Z,3.53
2022-08-29T03:10:35.357Z,4.30
2022-08-29T03:13:37.998Z,2.60
2022-08-29T03:16:41.455Z,3.38
2022-08-29T03:19:43.652Z,3.40
2022-08-29T03:22:46.767Z,3.88
2022-08-29T03:25:49.522Z,3.08
2022-08-29T03:28:51.669Z,2.67
2022-08-29T03:31:54.131Z,2.63
2022-08-29T03:34:55.957Z,2.17
2022-08-29T03:37:59.113Z,5.68
2022-08-29T03:41:01.610Z,5.00
2022-08-29T03:44:04.228Z,3.63
2022-08-29T03:47:08.206Z,4.00
2022-08-29T03:50:12.465Z,5.38
2022-08-29T03:53:17.041Z,4.28
2022-08-29T03:56:19.347Z,4.63
2022-08-29T03:59:22.244Z,4.82
2022-08-29T04:02:25.047Z,3.28
2022-08-29T04:05:27.459Z,3.35
2022-08-29T04:08:32.669Z,5.63
2022-08-29T04:11:37.661Z,3.50
2022-08-29T04:14:41.383Z,3.65
2022-08-29T04:17:52.820Z,3.28
2022-08-29T04:21:03.805Z,7.20
2022-08-29T04:24:06.171Z,5.03
2022-08-29T04:27:09.035Z,3.53
2022-08-29T04:30:14.703Z,6.28
2022-08-29T04:33:22.656Z,6.05
2022-08-29T04:36:25.443Z,3.22
2022-08-29T04:39:30.173Z,4.90
2022-08-29T04:42:32.039Z,4.03
2022-08-29T04:45:35.843Z,3.60
2022-08-29T04:48:37.660Z,2.83
2022-08-29T04:51:39.652Z,4.07
2022-08-29T04:54:41.731Z,2.95
2022-08-29T04:57:43.849Z,4.43
2022-08-29T05:00:45.972Z,2.72
2022-08-29T05:03:48.580Z,2.63
2022-08-29T05:06:50.377Z,2.55
2022-08-29T05:10:10.567Z,4.22
2022-08-29T05:13:12.632Z,2.67
2022-08-29T05:16:16.120Z,5.57
2022-08-29T05:19:18.019Z,3.28
2022-08-29T05:22:21.106Z,6.32
2022-08-29T05:25:23.238Z,2.40
2022-08-29T05:28:27.528Z,2.13
2022-08-29T05:31:29.374Z,4.00
2022-08-29T05:34:34.703Z,4.70
2022-08-29T05:37:37.362Z,3.13
2022-08-29T05:40:39.522Z,2.60
2022-08-29T05:43:41.740Z,4.20
2022-08-29T05:46:43.844Z,4.00
2022-08-29T05:49:47.201Z,2.97
2022-08-29T05:52:49.259Z,3.03
2022-08-29T05:55:51.310Z,3.13
2022-08-29T05:58:56.213Z,2.88
2022-08-29T06:01:58.509Z,6.78
2022-08-29T06:05:01.212Z,4.53
2022-08-29T06:08:03.952Z,4.45
2022-08-29T06:11:06.105Z,6.05
2022-08-29T06:14:08.122Z,5.55
2022-08-29T06:17:10.342Z,4.05
2022-08-29T06:20:12.784Z,5.00
2022-08-29T06:23:14.809Z,8.02
2022-08-29T06:26:17.715Z,5.53
2022-08-29T06:29:19.730Z,8.55
2022-08-29T06:32:21.538Z,3.92
2022-08-29T06:35:23.679Z,3.95
2022-08-29T06:38:26.208Z,4.63
2022-08-29T06:41:28.977Z,6.30
2022-08-29T06:44:35.011Z,4.45
2022-08-29T06:47:37.314Z,4.65
2022-08-29T06:50:45.317Z,5.35
2022-08-29T06:53:47.912Z,6.15
2022-08-29T06:56:58.022Z,6.38
2022-08-29T06:59:59.912Z,5.53
2022-08-29T07:03:05.567Z,6.78
2022-08-29T07:06:08.818Z,6.25
2022-08-29T07:09:13.048Z,10.20
2022-08-29T07:12:15.131Z,6.05
2022-08-29T07:15:17.624Z,6.90
2022-08-29T07:18:19.969Z,7.90
2022-08-29T07:21:24.755Z,7.72
2022-08-29T07:24:28.390Z,7.00
2022-08-29T07:27:30.376Z,7.55
2022-08-29T07:30:33.397Z,7.47
2022-08-29T07:33:36.122Z,7.22
2022-08-29T07:36:38.629Z,6.90
2022-08-29T07:39:40.680Z,6.72
2022-08-29T07:42:43.694Z,9.50
2022-08-29T07:45:45.654Z,7.45
2022-08-29T07:48:51.411Z,8.90
2022-08-29T07:51:55.003Z,8.43
2022-08-29T07:54:57.332Z,8.38
2022-08-29T07:57:59.687Z,6.88
2022-08-29T08:01:01.961Z,6.97
2022-08-29T08:04:04.865Z,6.05
2022-08-29T08:07:13.794Z,9.25
2022-08-29T08:10:19.961Z,7.68
2022-08-29T08:13:21.980Z,8.73
2022-08-29T08:16:26.391Z,7.85
2022-08-29T08:19:28.403Z,13.40
2022-08-29T08:22:30.450Z,7.43
2022-08-29T08:25:32.587Z,9.80
2022-08-29T08:28:35.034Z,8.45
2022-08-29T08:31:37.200Z,6.65
2022-08-29T08:34:39.097Z,6.28
2022-08-29T08:37:41.227Z,6.07
2022-08-29T08:40:46.650Z,5.88
2022-08-29T08:44:02.513Z,6.78
2022-08-29T08:47:07.409Z,6.20
2022-08-29T08:50:13.062Z,6.00
2022-08-29T08:53:35.433Z,8.33
2022-08-29T08:56:41.190Z,7.97
2022-08-29T08:59:52.913Z,6.77
2022-08-29T09:03:00.084Z,5.53
2022-08-29T09:06:27.206Z,9.45
2022-08-29T09:09:57.585Z,7.97
2022-08-29T09:13:06.661Z,4.97
2022-08-29T09:16:25.181Z,8.40
2022-08-29T09:19:27.615Z,4.97
2022-08-29T09:22:32.851Z,7.22
2022-08-29T09:25:36.676Z,6.85
2022-08-29T09:28:41.321Z,7.43
2022-08-29T09:31:43.851Z,7.03
2022-08-29T09:35:07.875Z,8.98
2022-08-29T09:38:25.371Z,7.03
2022-08-29T09:41:28.496Z,11.32
2022-08-29T09:44:35.075Z,7.20
2022-08-29T09:47:37.548Z,7.88
2022-08-29T09:50:40.201Z,6.07
2022-08-29T09:53:43.648Z,8.93
2022-08-29T09:57:10.987Z,7.07
2022-08-29T10:03:22.355Z,12.55
2022-08-29T10:09:29.143Z,6.32
2022-08-29T10:12:38.639Z,5.32
2022-08-29T10:16:02.825Z,6.22
2022-08-29T10:19:14.071Z,7.00
2022-08-29T10:22:36.023Z,5.88
2022-08-29T10:25:39.595Z,6.55
2022-08-29T10:28:51.643Z,7.35
2022-08-29T10:32:26.027Z,6.95
2022-08-29T10:35:32.815Z,5.85
2022-08-29T10:38:56.821Z,6.97
2022-08-29T10:42:16.350Z,4.97
2022-08-29T10:45:40.464Z,4.65
2022-08-29T10:49:07.303Z,7.50
2022-08-29T10:52:13.618Z,7.07
2022-08-29T10:55:19.942Z,4.97
2022-08-29T11:01:41.114Z,8.07
2022-08-29T11:04:51.524Z,7.03
2022-08-29T11:08:02.296Z,4.55
2022-08-29T11:11:06.996Z,4.78
2022-08-29T11:14:25.464Z,6.15
2022-08-29T11:17:31.993Z,6.80
2022-08-29T11:20:41.387Z,4.93
2022-08-29T11:23:48.107Z,5.53
2022-08-29T11:27:09.466Z,5.30
2022-08-29T11:30:18.554Z,5.40
2022-08-29T11:33:57.244Z,4.53
2022-08-29T11:37:37.653Z,6.32
2022-08-29T11:44:35.431Z,6.60
2022-08-29T11:47:46.155Z,6.32
2022-08-29T11:50:49.643Z,5.80
2022-08-29T11:53:51.801Z,4.85
2022-08-29T11:57:03.713Z,5.25
2022-08-29T12:00:44.100Z,6.43
2022-08-29T12:03:47.188Z,5.93
2022-08-29T12:06:54.016Z,4.65
2022-08-29T12:09:57.560Z,5.07
2022-08-29T12:13:05.758Z,5.63
2022-08-29T12:16:12.891Z,7.25
2022-08-29T12:19:49.954Z,4.88
2022-08-29T12:22:52.220Z,6.30
2022-08-29T12:26:16.306Z,5.43
2022-08-29T12:29:41.166Z,5.13
2022-08-29T12:33:10.974Z,5.88
2022-08-29T12:36:19.393Z,4.90
2022-08-29T12:39:42.992Z,5.47
2022-08-29T12:42:58.848Z,6.80
2022-08-29T12:46:03.684Z,5.55
2022-08-29T12:49:25.798Z,5.80
2022-08-29T12:52:38.158Z,6.32
2022-08-29T12:55:44.678Z,5.55
2022-08-29T12:58:53.459Z,5.60
2022-08-29T13:01:58.579Z,5.72
2022-08-29T13:05:01.539Z,4.82
2022-08-29T13:08:21.501Z,7.03
2022-08-29T13:11:26.568Z,5.82
2022-08-29T13:14:28.672Z,5.40
2022-08-29T13:17:37.819Z,5.63
2022-08-29T13:20:41.812Z,5.10
2022-08-29T13:23:47.939Z,6.97
2022-08-29T13:27:04.717Z,4.28
2022-08-29T13:30:09.602Z,3.67
2022-08-29T13:33:34.810Z,4.50
2022-08-29T13:36:59.491Z,5.63
2022-08-29T13:40:37.284Z,5.35
2022-08-29T13:43:43.983Z,8.77
2022-08-29T13:46:47.875Z,5.10
2022-08-29T13:49:50.498Z,8.23
2022-08-29T13:52:55.221Z,5.95
2022-08-29T13:55:59.333Z,6.18
2022-08-29T13:59:01.605Z,6.82
2022-08-29T14:02:09.318Z,5.90
2022-08-29T14:05:13.921Z,6.32
2022-08-29T14:08:16.389Z,5.55
2022-08-29T14:11:19.032Z,5.80
2022-08-29T14:14:21.613Z,4.82
2022-08-29T14:17:24.275Z,4.93
2022-08-29T14:20:26.779Z,5.43
2022-08-29T14:23:31.978Z,4.05
2022-08-29T14:26:33.937Z,4.50
2022-08-29T14:29:36.536Z,8.25
2022-08-29T14:32:38.932Z,4.10
2022-08-29T14:35:43.406Z,8.48
2022-08-29T14:38:45.408Z,6.40
2022-08-29T14:41:47.839Z,3.85
2022-08-29T14:44:49.872Z,5.40
2022-08-29T14:47:51.827Z,5.70
2022-08-29T14:50:56.394Z,4.00
2022-08-29T14:54:01.291Z,6.35
2022-08-29T14:57:03.571Z,5.35
2022-08-29T15:00:34.430Z,6.00
2022-08-29T15:03:37.582Z,4.05
2022-08-29T15:06:39.902Z,3.45
2022-08-29T15:09:44.350Z,4.85
2022-08-29T15:12:46.478Z,2.60
2022-08-29T15:15:48.477Z,3.88
2022-08-29T15:19:33.743Z,3.63
2022-08-29T15:22:13.149Z,3.08
2022-08-29T15:25:15.387Z,3.03
2022-08-29T15:28:17.523Z,7.95
2022-08-29T15:31:22.647Z,3.00
2022-08-29T15:34:26.157Z,5.82
2022-08-29T15:37:28.251Z,2.40
2022-08-29T15:40:30.437Z,2.67
2022-08-29T15:43:32.664Z,3.72
2022-08-29T15:46:37.880Z,5.85
2022-08-29T15:49:40.275Z,2.70
2022-08-29T15:52:42.830Z,4.47
2022-08-29T15:55:45.099Z,3.00
2022-08-29T15:58:48.596Z,4.75
2022-08-29T16:01:52.553Z,2.30
2022-08-29T17:26:20.636Z,3.08
2022-08-29T17:29:29.676Z,6.38
2022-08-29T17:32:32.601Z,3.92
2022-08-29T17:35:35.337Z,5.32
2022-08-29T17:38:43.695Z,4.28
2022-08-29T17:41:50.666Z,6.65
2022-08-29T17:44:52.957Z,3.80
2022-08-29T17:47:56.921Z,4.82
2022-08-29T17:50:59.674Z,6.90
2022-08-29T17:54:05.427Z,9.38
2022-08-29T17:57:08.474Z,5.53
2022-08-29T18:00:14.154Z,4.28
2022-08-29T18:03:18.754Z,4.45
2022-08-29T18:06:21.745Z,5.15
2022-08-29T18:09:25.211Z,5.95
2022-08-29T18:12:27.494Z,4.95
2022-08-29T18:15:30.136Z,6.03
2022-08-29T18:18:38.133Z,8.45
2022-08-29T18:21:45.250Z,4.47
2022-08-29T18:24:49.561Z,3.45
2022-08-29T18:27:54.515Z,4.15
2022-08-29T18:30:59.312Z,7.28
2022-08-29T18:34:02.491Z,3.25
2022-08-29T18:37:07.540Z,3.33
2022-08-29T18:40:11.657Z,4.05
2022-08-29T18:43:16.271Z,4.18
2022-08-29T18:46:20.160Z,4.32
2022-08-29T18:49:46.271Z,3.15
2022-08-29T18:52:52.672Z,3.95
2022-08-29T18:55:55.667Z,7.22
2022-08-29T18:58:59.069Z,7.70
2022-08-29T19:02:01.745Z,4.35
2022-08-29T19:05:04.801Z,4.60
2022-08-29T19:08:09.169Z,4.88
2022-08-29T19:11:11.764Z,4.90
2022-08-29T19:14:14.343Z,6.43
2022-08-29T19:17:17.790Z,4.03
2022-08-29T19:20:43.003Z,6.30
2022-08-29T19:23:52.406Z,7.47
2022-08-29T19:26:59.511Z,4.63
2022-08-29T19:30:05.473Z,6.22
2022-08-29T19:33:10.373Z,6.30
2022-08-29T19:36:12.874Z,4.85
2022-08-29T19:39:16.253Z,4.47
2022-08-29T19:42:19.201Z,5.40
2022-08-29T19:45:22.023Z,6.45
2022-08-29T19:48:25.069Z,8.65
2022-08-29T19:51:33.247Z,7.78
2022-08-29T19:54:35.486Z,5.20
2022-08-29T19:57:39.791Z,7.00
2022-08-29T20:00:45.158Z,4.88
2022-08-29T20:03:48.141Z,3.67
2022-08-29T20:06:50.771Z,5.50
2022-08-29T20:09:53.887Z,6.30
2022-08-29T20:12:57.831Z,4.68
2022-08-29T20:16:00.321Z,5.80
2022-08-29T20:19:05.017Z,9.82
2022-08-29T20:22:07.552Z,7.07
2022-08-29T20:25:10.871Z,8.15
2022-08-29T20:28:15.694Z,8.48
2022-08-29T20:31:21.909Z,5.32
2022-08-29T20:34:29.863Z,5.75
2022-08-29T20:37:32.225Z,5.30
2022-08-29T20:40:39.781Z,6.57
2022-08-29T20:43:41.844Z,6.60
2022-08-29T20:46:45.810Z,9.00
2022-08-29T20:49:49.490Z,5.93
2022-08-29T20:52:54.336Z,6.57
2022-08-29T20:55:59.035Z,5.90
2022-08-29T20:59:02.230Z,6.28
2022-08-29T21:02:05.269Z,7.15
2022-08-29T21:05:25.902Z,9.88
2022-08-29T21:08:29.937Z,6.60
2022-08-29T21:11:32.288Z,7.63
2022-08-29T21:14:34.704Z,8.15
2022-08-29T21:17:36.785Z,8.60
2022-08-29T21:20:54.118Z,7.78
2022-08-29T21:23:56.464Z,7.07
2022-08-29T21:26:58.979Z,7.07
2022-08-29T21:30:01.246Z,7.13
2022-08-29T21:33:03.879Z,8.82
2022-08-29T21:36:10.987Z,8.77
2022-08-29T21:39:19.667Z,5.85
2022-08-29T21:42:30.691Z,7.88
2022-08-29T21:45:34.673Z,10.38
2022-08-29T21:48:36.940Z,9.40
2022-08-29T21:51:39.114Z,7.43
2022-08-29T21:54:40.968Z,7.22
2022-08-29T21:57:51.822Z,10.13
2022-08-29T22:00:54.093Z,7.15
2022-08-29T22:03:57.980Z,8.45
2022-08-29T22:07:01.797Z,7.00
2022-08-29T22:10:05.317Z,8.00
2022-08-29T22:13:10.216Z,6.22
2022-08-29T22:16:28.930Z,7.40
2022-08-29T22:19:32.159Z,8.27
2022-08-29T22:22:35.214Z,6.60
2022-08-29T22:25:37.760Z,6.22
2022-08-29T22:28:40.567Z,9.45
2022-08-29T22:31:43.669Z,11.02
2022-08-29T22:34:45.870Z,9.48
2022-08-29T22:37:47.901Z,9.63
2022-08-29T22:40:50.043Z,9.07
2022-08-29T22:44:37.690Z,5.68
2022-08-29T22:47:19.406Z,11.68
2022-08-29T22:50:23.788Z,6.95
2022-08-29T22:53:26.124Z,6.13
2022-08-29T22:56:27.923Z,9.80
2022-08-29T22:59:30.309Z,7.53
2022-08-29T23:02:32.903Z,8.77
2022-08-29T23:05:34.995Z,8.10
2022-08-29T23:08:37.339Z,7.28
2022-08-29T23:11:39.898Z,9.25
2022-08-29T23:14:44.230Z,6.40
2022-08-29T23:17:46.586Z,6.82
2022-08-29T23:20:48.514Z,7.72
2022-08-29T23:23:51.774Z,6.93
2022-08-29T23:26:53.716Z,8.88
2022-08-29T23:29:56.562Z,6.22
2022-08-29T23:33:03.008Z,9.95
2022-08-29T23:36:05.728Z,9.63
2022-08-29T23:39:07.966Z,6.93
2022-08-29T23:42:10.262Z,8.80
2022-08-29T23:45:12.510Z,8.43
2022-08-29T23:48:15.293Z,6.97
2022-08-29T23:51:20.017Z,6.32
2022-08-29T23:54:27.107Z,11.48
2022-08-29T23:57:29.063Z,13.43
